Ejby, Denmark
Current Conditions -  °F | °C
As of 10:50 PM on Wednesday 26 Nov 2014 (Local Time) from EKRK Reporting Station
Overcast Overcast  
Wind Chill: 39°   Ceiling: 2300
Heat Index: 43°   Visibility: 6mi
Dew Point: 37°   Wind: 6mph
Humidity: 81%   Direction: 150°SSE
Pressure: 30.18"   Gusts: NA
Location:  55.49°N, 12.08°E
Report Text: EKRK 262150Z AUTO 15005KT 9999NDV SCT019/// OVC023///06/03 Q1022
Loading
Personal Weather Stations






























Interactive Weather Map New forecast layout! Learn more

10-Day Weather Forecast

Advertisements
Track Severe Weather on mobile